Pagrindinis puslapis
METAR-TAF:

METAR-TAF

Oro uostai :

Fudžeira, Jungtiniai Arabų Emyratai

platuma: 25-06N, ilguma: 056-20E, Aukštis: 28 m

Dabartinis oras

Ataskaita buvo paskelbta 37 minutes, ne 22:00 UTC
Vėjas 9 kt iš Šiaurės/Šiaurės Rytų
Temperatūra 31°C
Drėgmė 89%
Slėgis 1002 hPa
Matomumas: 6000 m

METAR: OMFJ 242200Z 02009KT 6000 NSC 31/29 Q1001 A2958

Laikas: 02:37 (22:37 UTC)

Prognozė

Ataskaita buvo paskelbta 5 valandos ir 37 minutes, ne 17:00 UTC
Prognozė galioja nuo 24 metu 18 UTC su 26 metu 00 UTC
Vėjas 12 kt iš Vakarų/Šiaurės Vakarų
Matomumas: 7000 m
Tikimybė 30%
nuo 24 metu 18 UTC su 24 metu 22 UTC
Vėjas 16 kt iš Vakarų/Šiaurės Vakarų su gūsio iki 26 kt
Matomumas: 5000 m
Dulkes pustymas
Tapsmas
nuo 25 metu 06 UTC su 25 metu 08 UTC
Vėjas 10 kt iš Rytų
Tapsmas
nuo 25 metu 15 UTC su 25 metu 17 UTC
Vėjas 3 kt nuo kintamojo kryptimis

TAF: OMFJ 241700Z 2418/2600 29012KT 7000 NSC PROB30 2418/2422 30016G26KT 5000 BLDU BECMG 2506/2508 09010KT BECMG 2515/2517 VRB03KT

Orai ataskaitas ir orų prognozės (METAR, TAF).

turimą stotys yra geltonos ir raudonos taškus žemėlapyje.

Perkelti pele per norėdami pamatyti stoties vardą.

Tada spustelėkite, norėdami matyti oro stebėjimo ir prognozės.

Norėdami pakeisti žemėlapį: spustelėkite ant žalios mygtukų su juodo kryžiaus žemyn,; žalią mygtuką su brūkšneliu, jei norite nutolinti; arba žalių rodyklių gretimoms žemėlapius.


METAR-TAF: